Time;durP1;ratioP1;P1;durP2;ratioP2;P2;SDS_P1;SDS_P2;PMS_P1;PMS_P2;Temp;Humidity;BMP_temperature;BMP_pressure;BME280_temperature;BME280_humidity;BME280_pressure;Samples;Min_cycle;Max_cycle;Signal;HPM_P1;HPM_P2
2023/10/02 00:05:06;;;;;;;12.90;5.70;;;;;;;14.89;97.09;101183.74;223631;1263;139756;-83
2023/10/02 00:10:48;;;;;;;11.30;5.60;;;;;;;14.86;97.24;101185.31;223653;1266;141090;-83
2023/10/02 00:17:15;;;;;;;11.60;5.90;;;;;;;14.86;97.71;101191.40;224220;1263;94618;-83
2023/10/02 00:22:52;;;;;;;;;;;;;;;;;;;;;
2023/10/02 00:34:48;;;;;;;;;;;;;;;;;;;;;
2023/10/02 00:40:50;;;;;;;12.10;6.00;;;;;;;14.74;98.37;101182.15;223633;1267;139834;-83
2023/10/02 00:46:51;;;;;;;13.50;6.30;;;;;;;14.77;98.74;101181.45;224139;1263;139430;-83
2023/10/02 00:52:45;;;;;;;9.20;4.90;;;;;;;14.77;98.64;101175.75;223665;1263;140065;-83
2023/10/02 00:58:48;;;;;;;11.60;5.00;;;;;;;14.77;98.63;101164.58;224192;1267;138733;-84
2023/10/02 01:04:47;;;;;;;12.30;6.60;;;;;;;14.75;98.79;101170.36;223683;1263;139914;-83
2023/10/02 01:10:50;;;;;;;14.70;6.10;;;;;;;14.72;99.11;101170.57;223576;1263;139649;-83
2023/10/02 01:16:50;;;;;;;13.10;6.10;;;;;;;14.70;99.03;101172.23;224118;1263;138415;-83
2023/10/02 01:22:43;;;;;;;16.20;6.80;;;;;;;14.67;99.14;101172.14;223654;1267;139898;-83
2023/10/02 01:46:52;;;;;;;12.40;5.90;;;;;;;14.62;99.37;101159.67;224122;1263;138792;-83
2023/10/02 01:52:55;;;;;;;10.60;5.70;;;;;;;14.63;99.61;101170.67;223601;1263;139938;-83
2023/10/02 02:04:56;;;;;;;12.40;6.30;;;;;;;14.61;99.90;101170.02;223630;1263;139531;-83
2023/10/02 02:16:57;;;;;;;14.40;6.90;;;;;;;14.61;99.72;101172.96;224124;1268;138944;-83
2023/10/02 02:23:07;;;;;;;12.40;7.20;;;;;;;14.61;99.75;101175.10;223691;1263;139999;-84
2023/10/02 02:28:59;;;;;;;12.50;6.20;;;;;;;14.62;99.34;101174.86;224091;1263;138504;-83
2023/10/02 02:35:00;;;;;;;14.20;7.50;;;;;;;14.64;99.64;101171.79;223609;1263;223414;-83
2023/10/02 02:41:05;;;;;;;15.00;7.60;;;;;;;14.65;99.40;101173.29;223655;1263;140034;-84
2023/10/02 02:46:56;;;;;;;13.60;7.10;;;;;;;14.66;99.50;101172.27;224183;1266;138338;-83
2023/10/02 02:53:23;;;;;;;12.00;6.40;;;;;;;14.66;99.26;101169.43;223659;1263;140078;-83
2023/10/02 02:59:02;;;;;;;13.60;6.80;;;;;;;14.66;99.32;101164.99;224081;1263;138493;-83
2023/10/02 03:05:00;;;;;;;15.30;7.40;;;;;;;14.67;99.85;101171.64;223612;1263;139413;-83
2023/10/02 03:10:46;;;;;;;;;;;;;;;;;;;;;
2023/10/02 03:16:51;;;;;;;18.70;11.90;;;;;;;14.69;99.98;101172.14;224189;1263;138536;-83
2023/10/02 03:22:53;;;;;;;15.50;7.60;;;;;;;14.73;99.91;101165.90;223522;1263;140004;-84
2023/10/02 03:40:56;;;;;;;12.80;7.50;;;;;;;14.85;99.43;101159.17;223665;1263;139719;-83
2023/10/02 03:46:59;;;;;;;16.20;8.30;;;;;;;14.88;99.38;101156.65;224209;1263;138423;-84
2023/10/02 03:53:12;;;;;;;16.30;9.90;;;;;;;14.89;99.63;101163.23;223555;1267;139905;-84
2023/10/02 03:58:59;;;;;;;14.90;9.00;;;;;;;14.93;99.68;101156.36;224197;1268;138534;-83
2023/10/02 04:05:00;;;;;;;18.50;10.60;;;;;;;14.92;99.88;101150.50;223766;1268;139837;-83
2023/10/02 04:11:26;;;;;;;17.80;11.50;;;;;;;14.92;100.00;101147.80;223746;1263;139851;-83
2023/10/02 04:22:56;;;;;;;;;;;;;;;;;;;;;
2023/10/02 04:29:09;;;;;;;22.60;18.80;;;;;;;14.93;100.00;101147.57;224060;1263;138794;-83
2023/10/02 04:35:02;;;;;;;24.70;18.50;;;;;;;14.97;100.00;101150.60;223553;1267;140019;-83
2023/10/02 04:46:55;;;;;;;;;;;;;;;;;;;;;
2023/10/02 04:59:48;;;;;;;35.00;30.30;;;;;;;15.06;100.00;101153.02;224178;1263;138609;-83
2023/10/02 05:04:58;;;;;;;32.50;29.00;;;;;;;15.10;100.00;101155.41;223455;1265;140051;-84
2023/10/02 05:11:04;;;;;;;50.50;45.50;;;;;;;15.12;100.00;101156.92;223541;1263;140442;-84
2023/10/02 05:17:16;;;;;;;40.70;37.30;;;;;;;15.16;100.00;101164.77;224093;1264;138884;-84
2023/10/02 05:23:02;;;;;;;50.60;46.50;;;;;;;15.17;100.00;101169.47;223512;1264;140461;-85
2023/10/02 05:35:26;;;;;;;72.90;67.10;;;;;;;15.17;100.00;101165.42;223610;1264;140003;-84
2023/10/02 05:41:03;;;;;;;71.80;65.10;;;;;;;15.18;100.00;101164.00;223519;1264;140302;-85
2023/10/02 05:53:04;;;;;;;91.90;84.50;;;;;;;15.28;100.00;101166.73;223678;1263;140388;-85
2023/10/02 05:59:04;;;;;;;123.90;114.10;;;;;;;15.32;100.00;101171.02;224111;1264;139287;-84
2023/10/02 06:05:18;;;;;;;113.20;103.90;;;;;;;15.34;100.00;101175.58;223824;1263;140884;-82
2023/10/02 06:11:59;;;;;;;148.40;137.70;;;;;;;15.38;100.00;101177.33;223789;1263;140483;-87
2023/10/02 06:17:14;;;;;;;139.60;129.10;;;;;;;15.41;100.00;101172.91;224098;1264;140036;-88
2023/10/02 06:23:14;;;;;;;123.40;114.10;;;;;;;15.45;100.00;101163.33;223636;1267;140596;-90
2023/10/02 06:35:44;;;;;;;299.90;271.50;;;;;;;15.58;100.00;101176.61;222764;1273;366446;-87
2023/10/02 06:41:32;;;;;;;;;;;;;;;;;;;;;
2023/10/02 06:47:34;;;;;;;281.60;258.90;;;;;;;15.73;100.00;101190.77;224218;1263;109793;-88
2023/10/02 06:53:34;;;;;;;;;;;;;;;;;;;;;
2023/10/02 06:59:36;;;;;;;360.40;329.50;;;;;;;15.93;100.00;101187.63;224132;1263;140110;-86
2023/10/02 07:05:29;;;;;;;;;;;;;;;;;;;;;
2023/10/02 07:11:35;;;;;;;343.30;313.40;;;;;;;16.16;100.00;101185.59;223593;1263;140652;-88
2023/10/02 07:23:32;;;;;;;;;;;;;;;;;;;;;
2023/10/02 07:29:59;;;;;;;397.60;362.80;;;;;;;16.56;100.00;101175.11;224267;1264;138995;-88
2023/10/02 07:41:59;;;;;;;375.60;343.10;;;;;;;16.87;100.00;101191.41;223700;1263;140521;-87
2023/10/02 07:48:13;;;;;;;332.70;305.20;;;;;;;17.03;100.00;101189.31;224392;1264;107492;-87
2023/10/02 08:00:01;;;;;;;405.50;370.30;;;;;;;17.32;100.00;101187.84;224084;1264;107190;-88
2023/10/02 08:12:04;;;;;;;395.10;360.90;;;;;;;17.55;99.99;101196.20;223657;1264;140623;-88
2023/10/02 08:24:12;;;;;;;296.70;270.40;;;;;;;17.77;98.97;101178.83;223752;1263;140374;-86
2023/10/02 08:30:37;;;;;;;372.80;341.50;;;;;;;17.86;98.82;101172.70;219628;1263;5393241;-87
2023/10/02 08:36:09;;;;;;;258.50;237.90;;;;;;;17.99;98.27;101175.39;224123;1263;138934;-86
2023/10/02 08:41:50;;;;;;;335.10;305.40;;;;;;;18.20;97.37;101172.53;223713;1263;140234;-86
2023/10/02 08:47:50;;;;;;;387.70;351.70;;;;;;;18.41;96.77;101184.32;224258;1263;138877;-87
2023/10/02 08:53:44;;;;;;;;;;;;;;;;;;;;;
2023/10/02 09:05:50;;;;;;;288.70;265.10;;;;;;;18.97;95.57;101184.23;224145;1263;389507;-87
2023/10/02 09:12:16;;;;;;;259.40;235.30;;;;;;;19.29;94.11;101177.66;223678;1264;140253;-91
2023/10/02 09:17:58;;;;;;;55.70;48.50;;;;;;;19.55;90.71;101178.84;224190;1263;139237;-88
2023/10/02 09:30:16;;;;;;;38.90;34.00;;;;;;;19.96;86.92;101169.95;223585;1264;139944;-87
2023/10/02 09:36:06;;;;;;;29.90;23.20;;;;;;;20.18;85.91;101165.00;224180;1263;139078;-87
2023/10/02 09:42:07;;;;;;;28.90;21.30;;;;;;;20.42;84.68;101155.78;223719;1263;139272;-86
2023/10/02 09:47:50;;;;;;;38.70;18.60;;;;;;;20.70;82.88;101147.36;224288;1263;138728;-90
2023/10/02 09:54:09;;;;;;;19.90;11.00;;;;;;;20.94;80.97;101144.52;223770;1263;139818;-89
2023/10/02 10:00:34;;;;;;;25.20;10.90;;;;;;;21.28;80.20;101140.21;223757;1263;140514;-87
2023/10/02 10:06:05;;;;;;;;;;;;;;;;;;;;;
2023/10/02 10:12:50;;;;;;;18.40;8.20;;;;;;;21.79;77.36;101136.36;223784;1263;140034;-86
2023/10/02 10:24:22;;;;;;;18.90;7.70;;;;;;;22.27;75.52;101121.73;223734;1263;140327;-90
2023/10/02 10:36:31;;;;;;;;;;;;;;;;;;;;;
2023/10/02 10:42:23;;;;;;;;;;;;;;;;;;;;;
2023/10/02 10:48:16;;;;;;;;;;;;;;;;;;;;;
2023/10/02 10:54:41;;;;;;;22.60;9.80;;;;;;;23.11;70.06;101106.83;223639;1263;139290;-89
2023/10/02 11:00:46;;;;;;;22.70;9.50;;;;;;;23.28;69.82;101104.16;223713;1264;139025;-88
2023/10/02 11:06:46;;;;;;;23.60;10.30;;;;;;;23.36;67.68;101102.02;224026;1263;137798;-90
2023/10/02 11:12:25;;;;;;;19.10;9.00;;;;;;;23.27;66.99;101096.81;223821;1263;139229;-88
2023/10/02 11:18:18;;;;;;;22.80;10.30;;;;;;;23.23;66.28;101097.42;224359;1263;137685;-90
2023/10/02 11:24:19;;;;;;;20.10;9.80;;;;;;;23.10;66.03;101089.13;223769;1263;139348;-90
2023/10/02 11:36:22;;;;;;;16.50;9.50;;;;;;;23.19;67.05;101081.09;224099;1263;137852;-89
2023/10/02 11:42:23;;;;;;;19.90;9.70;;;;;;;23.17;66.52;101073.45;223757;1265;139005;-88
2023/10/02 11:47:54;;;;;;;;;;;;;;;;;;;;;
2023/10/02 11:53:49;;;;;;;;;;;;;;;;;;;;;
2023/10/02 11:59:55;;;;;;;20.10;9.70;;;;;;;23.23;66.59;101061.05;224220;1263;138374;-88
2023/10/02 12:05:32;;;;;;;;;;;;;;;;;;;;;
2023/10/02 12:11:34;;;;;;;22.80;10.10;;;;;;;23.35;67.52;101047.84;223638;1263;139441;-89
2023/10/02 12:17:35;;;;;;;22.00;10.40;;;;;;;23.40;67.08;101040.14;224324;1263;138140;-88
2023/10/02 12:35:40;;;;;;;22.60;10.20;;;;;;;23.55;66.37;101036.13;224312;1263;137682;-88
2023/10/02 12:42:05;;;;;;;24.60;10.60;;;;;;;23.64;65.81;101027.75;223833;1263;139502;-86
2023/10/02 12:47:41;;;;;;;28.40;9.70;;;;;;;23.65;66.10;101022.95;224196;1263;138019;-87
2023/10/02 12:53:35;;;;;;;248.40;24.40;;;;;;;23.71;66.05;101016.33;223754;1263;139067;-85
2023/10/02 12:59:17;;;;;;;;;;;;;;;;;;;;;
2023/10/02 13:05:08;;;;;;;;;;;;;;;;;;;;;
2023/10/02 13:11:09;;;;;;;;;;;;;;;;;;;;;
2023/10/02 13:23:05;;;;;;;;;;;;;;;;;;;;;
2023/10/02 13:28:57;;;;;;;16.30;8.20;;;;;;;23.79;65.67;100987.15;224215;1263;138275;-88
2023/10/02 13:34:57;;;;;;;;;;;;;;;;;;;;;
2023/10/02 13:40:49;;;;;;;21.40;9.80;;;;;;;23.86;66.50;100980.08;223629;1263;139342;-89
2023/10/02 13:46:48;;;;;;;;;;;;;;;;;;;;;
2023/10/02 13:52:43;;;;;;;20.70;9.60;;;;;;;23.85;65.32;100968.00;223801;1263;139167;-89
2023/10/02 13:58:42;;;;;;;18.20;8.00;;;;;;;23.81;65.11;100963.46;224337;1264;138282;-89
2023/10/02 14:04:32;;;;;;;;;;;;;;;;;;;;;
2023/10/02 14:10:33;;;;;;;24.80;9.30;;;;;;;23.70;65.42;100949.23;223793;1263;138999;-85
2023/10/02 14:16:33;;;;;;;;;;;;;;;;;;;;;
2023/10/02 14:22:16;;;;;;;18.90;8.70;;;;;;;23.75;66.32;100944.39;223604;1263;139695;-88
2023/10/02 14:28:14;;;;;;;19.80;8.20;;;;;;;23.72;66.17;100941.30;224300;1263;138063;-90
2023/10/02 14:34:07;;;;;;;21.50;9.20;;;;;;;23.65;66.27;100939.54;223729;1263;139411;-89
2023/10/02 14:40:10;;;;;;;28.40;9.30;;;;;;;23.62;66.64;100935.39;223701;1263;139456;-89
2023/10/02 14:46:09;;;;;;;34.40;9.70;;;;;;;23.56;66.72;100933.55;224260;1263;138322;-88
2023/10/02 14:52:10;;;;;;;18.70;9.30;;;;;;;23.50;67.00;100931.86;223596;1263;139635;-88
2023/10/02 14:58:11;;;;;;;20.80;8.30;;;;;;;23.42;67.33;100918.08;224204;1263;138417;-88
2023/10/02 15:04:13;;;;;;;21.80;8.70;;;;;;;23.32;67.53;100914.41;223679;1263;139162;-88
2023/10/02 15:10:16;;;;;;;19.70;10.10;;;;;;;23.28;67.57;100912.30;223726;1263;138944;-87
2023/10/02 15:22:15;;;;;;;19.20;9.10;;;;;;;23.07;68.14;100901.63;223784;1263;139135;-87
2023/10/02 15:28:21;;;;;;;20.00;8.60;;;;;;;23.01;68.54;100903.61;224143;1263;137901;-88
2023/10/02 15:34:20;;;;;;;19.10;8.60;;;;;;;22.91;68.88;100902.48;223495;1263;139361;-86
2023/10/02 15:40:18;;;;;;;;;;;;;;;;;;;;;
2023/10/02 15:46:21;;;;;;;20.50;10.20;;;;;;;22.70;69.39;100913.26;224237;1263;138452;-86
2023/10/02 15:52:21;;;;;;;19.00;8.30;;;;;;;22.59;69.68;100915.50;223747;1263;139623;-85
2023/10/02 15:58:23;;;;;;;16.10;8.70;;;;;;;22.47;70.10;100914.91;224232;1264;138545;-88
2023/10/02 16:04:24;;;;;;;17.50;8.80;;;;;;;22.38;71.18;100920.05;223561;1263;139086;-87
2023/10/02 16:10:25;;;;;;;33.20;29.70;;;;;;;22.23;73.40;100917.27;223584;1263;138635;-87
2023/10/02 16:22:27;;;;;;;98.80;91.40;;;;;;;21.76;76.25;100914.36;223613;1263;139324;-88
2023/10/02 16:28:28;;;;;;;156.50;145.00;;;;;;;21.55;77.47;100907.43;224197;1266;138121;-87
2023/10/02 16:34:27;;;;;;;;;;;;;;;;;;;;;
2023/10/02 16:40:22;;;;;;;;;;;;;;;;;;;;;
2023/10/02 16:46:26;;;;;;;209.90;193.80;;;;;;;20.82;80.16;100913.31;224223;1266;139348;-86
2023/10/02 16:52:27;;;;;;;235.40;214.80;;;;;;;20.59;80.96;100916.31;223508;1267;140412;-86
2023/10/02 16:58:29;;;;;;;214.80;196.60;;;;;;;20.39;82.03;100922.02;224065;1263;139367;-86
2023/10/02 17:04:30;;;;;;;232.40;213.70;;;;;;;20.16;82.56;100927.21;223521;1263;140400;-85
2023/10/02 17:10:32;;;;;;;282.90;259.10;;;;;;;19.98;83.48;100928.89;223536;1263;142064;-83
2023/10/02 17:16:32;;;;;;;269.70;247.00;;;;;;;19.80;84.22;100923.41;224082;1267;139089;-83
2023/10/02 17:22:36;;;;;;;231.90;212.80;;;;;;;19.63;84.73;100926.11;223731;1263;140611;-85
2023/10/02 17:28:23;;;;;;;;;;;;;;;;;;;;;
2023/10/02 17:34:25;;;;;;;1403.30;812.00;;;;;;;19.22;89.61;100919.56;223518;1267;140590;-85
2023/10/02 17:40:20;;;;;;;;;;;;;;;;;;;;;
2023/10/02 17:58:24;;;;;;;1905.90;928.50;;;;;;;18.64;94.36;100910.94;224128;1267;139813;-82
2023/10/02 18:04:26;;;;;;;1922.60;941.90;;;;;;;18.50;95.80;100906.04;223621;1267;140322;-83
2023/10/02 18:10:27;;;;;;;1802.10;891.30;;;;;;;18.37;95.98;100909.08;223535;1267;141088;-83
2023/10/02 18:16:20;;;;;;;;;;;;;;;;;;;;;
2023/10/02 18:22:21;;;;;;;;;;;;;;;;;;;;;
2023/10/02 18:28:24;;;;;;;1866.80;922.50;;;;;;;18.03;97.57;100900.80;224157;1267;139871;-82
2023/10/02 18:34:25;;;;;;;1945.80;938.20;;;;;;;17.94;98.38;100893.35;223643;1265;140595;-82
2023/10/02 18:40:48;;;;;;;1524.20;832.90;;;;;;;17.87;97.41;100897.09;223554;1266;140814;-81
2023/10/02 18:46:31;;;;;;;1521.50;867.10;;;;;;;17.77;98.22;100905.79;224235;1263;139441;-82
2023/10/02 18:58:05;;;;;;;;;;;;;;;;;;;;;
2023/10/02 19:04:12;;;;;;;1264.40;810.20;;;;;;;17.59;97.97;100894.35;223631;1263;140148;-82
2023/10/02 19:09:48;;;;;;;;;;;;;;;;;;;;;
2023/10/02 19:15:40;;;;;;;1044.50;728.90;;;;;;;17.45;99.09;100881.69;224158;1263;139336;-83
2023/10/02 19:21:41;;;;;;;1124.00;777.30;;;;;;;17.41;98.92;100874.34;223601;1263;140862;-82
2023/10/02 19:27:43;;;;;;;963.70;721.40;;;;;;;17.36;99.55;100870.62;224128;1263;139761;-82
2023/10/02 19:33:38;;;;;;;;;;;;;;;;;;;;;
2023/10/02 19:39:38;;;;;;;1065.40;752.90;;;;;;;17.25;99.88;100859.83;224157;1263;139521;-82
2023/10/02 19:45:34;;;;;;;901.00;710.40;;;;;;;17.22;99.72;100852.47;224182;1263;139968;-82
2023/10/02 19:51:24;;;;;;;971.10;698.40;;;;;;;17.19;99.76;100849.00;223605;1263;140208;-81
2023/10/02 19:57:25;;;;;;;950.50;696.30;;;;;;;17.17;99.82;100843.55;224048;1267;139831;-82
2023/10/02 20:03:23;;;;;;;1133.10;760.80;;;;;;;17.12;99.94;100835.55;223592;1268;140410;-82
2023/10/02 20:09:25;;;;;;;987.80;725.20;;;;;;;17.06;100.00;100836.01;224135;1264;139288;-83
2023/10/02 20:15:24;;;;;;;;;;;;;;;;;;;;;
2023/10/02 20:21:21;;;;;;;1224.40;776.70;;;;;;;16.93;100.00;100821.58;223542;1263;140665;-82
2023/10/02 20:27:00;;;;;;;;;;;;;;;;;;;;;
2023/10/02 20:32:46;;;;;;;;;;;;;;;;;;;;;
2023/10/02 20:38:32;;;;;;;885.90;694.70;;;;;;;16.79;100.00;100808.20;224204;1263;140025;-82
2023/10/02 20:44:20;;;;;;;;;;;;;;;;;;;;;
2023/10/02 20:50:19;;;;;;;;;;;;;;;;;;;;;
2023/10/02 20:56:21;;;;;;;1028.70;740.20;;;;;;;16.66;100.00;100800.52;224109;1269;139450;-82
2023/10/02 21:02:23;;;;;;;1062.50;723.20;;;;;;;16.64;100.00;100798.07;223596;1264;140525;-82
2023/10/02 21:08:24;;;;;;;859.80;664.40;;;;;;;16.61;100.00;100794.37;224070;1265;139491;-81
2023/10/02 21:14:16;;;;;;;;;;;;;;;;;;;;;
2023/10/02 21:20:26;;;;;;;1106.10;746.80;;;;;;;16.54;100.00;100790.67;223550;1264;141239;-82
2023/10/02 21:26:27;;;;;;;744.50;634.10;;;;;;;16.51;100.00;100779.20;224115;1263;139710;-82
2023/10/02 21:32:29;;;;;;;762.40;646.50;;;;;;;16.49;100.00;100781.36;223748;1264;140717;-81
2023/10/02 21:38:31;;;;;;;726.70;621.00;;;;;;;16.48;100.00;100787.79;224068;1267;139948;-81
2023/10/02 21:44:31;;;;;;;687.70;589.00;;;;;;;16.48;100.00;100781.59;223655;1269;140927;-81
2023/10/02 21:50:32;;;;;;;793.00;628.70;;;;;;;16.49;100.00;100780.23;223678;1264;140618;-82
2023/10/02 21:56:27;;;;;;;866.10;669.80;;;;;;;16.50;100.00;100781.41;224118;1267;139930;-82
2023/10/02 22:02:27;;;;;;;786.70;653.10;;;;;;;16.51;100.00;100773.88;223658;1267;140862;-82
2023/10/02 22:08:28;;;;;;;945.80;702.80;;;;;;;16.52;100.00;100771.08;224227;1267;139943;-81
2023/10/02 22:14:29;;;;;;;719.20;606.20;;;;;;;16.53;100.00;100765.29;223585;1264;140289;-82
2023/10/02 22:20:31;;;;;;;746.50;636.60;;;;;;;16.55;100.00;100769.56;223579;1264;140589;-82
2023/10/02 22:26:19;;;;;;;764.50;625.70;;;;;;;16.53;100.00;100761.55;224232;1263;139592;-82
2023/10/02 22:32:21;;;;;;;744.20;622.70;;;;;;;16.51;100.00;100750.20;223698;1263;140473;-82
2023/10/02 22:38:14;;;;;;;;;;;;;;;;;;;;;
2023/10/02 22:44:11;;;;;;;832.00;675.30;;;;;;;16.44;100.00;100740.04;223584;1263;140321;-82
2023/10/02 22:50:13;;;;;;;713.80;612.70;;;;;;;16.41;100.00;100736.80;223648;1264;140742;-82
2023/10/02 22:56:13;;;;;;;716.50;605.80;;;;;;;16.37;100.00;100735.54;224140;1267;140007;-82
2023/10/02 23:02:07;;;;;;;669.60;583.00;;;;;;;16.33;100.00;100738.25;223676;1264;140418;-81
2023/10/02 23:08:10;;;;;;;737.70;621.20;;;;;;;16.28;100.00;100731.23;224137;1264;139909;-81
2023/10/02 23:14:07;;;;;;;;;;;;;;;;;;;;;
2023/10/02 23:20:13;;;;;;;681.40;591.20;;;;;;;16.16;100.00;100735.52;223722;1264;142368;-81
2023/10/02 23:26:11;;;;;;;680.90;580.30;;;;;;;16.10;100.00;100734.46;224195;1263;139999;-81
2023/10/02 23:38:14;;;;;;;588.90;531.10;;;;;;;16.00;100.00;100726.11;224126;1264;139726;-81
2023/10/02 23:44:14;;;;;;;593.60;532.60;;;;;;;15.95;100.00;100728.69;223684;1263;140532;-81
2023/10/02 23:50:17;;;;;;;652.90;563.00;;;;;;;15.87;100.00;100726.19;223740;1263;141186;-81
